createdAt,value
2022-09-24T00:01:32.136Z,6.10
2022-09-24T00:04:05.838Z,6.04
2022-09-24T00:06:37.015Z,5.91
2022-09-24T00:09:04.604Z,5.50
2022-09-24T00:11:31.637Z,5.69
2022-09-24T00:13:59.092Z,5.84
2022-09-24T00:16:28.349Z,5.69
2022-09-24T00:18:55.246Z,5.68
2022-09-24T00:21:24.626Z,5.63
2022-09-24T00:23:56.086Z,5.57
2022-09-24T00:26:42.090Z,5.09
2022-09-24T00:29:10.811Z,5.48
2022-09-24T00:31:37.736Z,5.60
2022-09-24T00:34:04.717Z,5.43
2022-09-24T00:36:31.774Z,5.35
2022-09-24T00:39:00.167Z,5.40
2022-09-24T00:41:30.167Z,5.28
2022-09-24T00:43:57.314Z,5.46
2022-09-24T00:46:39.237Z,5.72
2022-09-24T00:49:12.640Z,5.61
2022-09-24T00:51:41.756Z,5.26
2022-09-24T00:54:17.121Z,5.38
2022-09-24T00:56:48.061Z,4.91
2022-09-24T00:59:18.355Z,5.09
2022-09-24T01:01:47.212Z,5.21
2022-09-24T01:04:16.232Z,5.49
2022-09-24T01:06:43.264Z,5.48
2022-09-24T01:09:10.353Z,5.37
2022-09-24T01:11:45.884Z,5.49
2022-09-24T01:14:42.423Z,5.29
2022-09-24T01:17:32.175Z,5.45
2022-09-24T01:20:29.712Z,5.32
2022-09-24T01:22:59.151Z,5.46
2022-09-24T01:26:08.100Z,5.33
2022-09-24T01:28:43.440Z,5.57
2022-09-24T01:31:46.944Z,5.56
2022-09-24T01:34:27.016Z,5.52
2022-09-24T01:36:57.479Z,5.58
2022-09-24T01:39:25.911Z,5.64
2022-09-24T01:41:53.549Z,5.62
2022-09-24T01:44:20.670Z,5.52
2022-09-24T01:46:47.723Z,5.69
2022-09-24T01:49:14.391Z,5.60
2022-09-24T01:51:50.140Z,5.63
2022-09-24T01:54:16.632Z,5.27
2022-09-24T01:57:00.631Z,5.37
2022-09-24T01:59:37.911Z,5.42
2022-09-24T02:02:07.016Z,5.36
2022-09-24T02:04:41.863Z,5.38
2022-09-24T02:07:33.762Z,5.39
2022-09-24T02:10:00.536Z,5.56
2022-09-24T02:12:42.320Z,5.48
2022-09-24T02:15:12.998Z,5.48
2022-09-24T02:17:44.628Z,5.56
2022-09-24T02:20:20.065Z,5.52
2022-09-24T02:22:49.452Z,5.61
2022-09-24T02:25:20.929Z,5.38
2022-09-24T02:27:47.586Z,5.06
2022-09-24T02:30:14.784Z,5.13
2022-09-24T02:32:43.192Z,5.14
2022-09-24T02:35:11.910Z,5.24
2022-09-24T02:37:41.749Z,5.11
2022-09-24T02:40:12.258Z,5.02
2022-09-24T02:42:41.059Z,5.09
2022-09-24T02:45:08.323Z,5.27
2022-09-24T02:47:34.923Z,5.26
2022-09-24T02:50:01.566Z,5.17
2022-09-24T02:52:28.201Z,5.09
2022-09-24T02:54:54.773Z,5.14
2022-09-24T02:57:21.405Z,4.90
2022-09-24T02:59:48.057Z,4.94
2022-09-24T03:02:15.296Z,4.79
2022-09-24T03:04:42.185Z,4.96
2022-09-24T03:07:09.346Z,4.93
2022-09-24T03:09:35.983Z,5.05
2022-09-24T03:12:02.597Z,4.91
2022-09-24T03:14:29.205Z,5.15
2022-09-24T03:16:55.768Z,4.69
2022-09-24T03:19:22.401Z,5.02
2022-09-24T03:21:48.968Z,4.82
2022-09-24T03:24:15.560Z,4.95
2022-09-24T03:26:42.235Z,4.67
2022-09-24T03:29:10.000Z,4.96
2022-09-24T03:31:36.679Z,5.02
2022-09-24T03:34:03.508Z,4.72
2022-09-24T03:36:30.246Z,4.98
2022-09-24T03:38:57.007Z,5.04
2022-09-24T03:41:25.440Z,5.19
2022-09-24T03:43:52.051Z,4.86
2022-09-24T03:46:19.182Z,5.11
2022-09-24T03:48:47.322Z,4.90
2022-09-24T03:51:18.653Z,4.80
2022-09-24T03:53:45.947Z,4.80
2022-09-24T03:56:13.116Z,4.77
2022-09-24T03:58:40.548Z,4.95
2022-09-24T04:01:08.712Z,4.69
2022-09-24T04:03:36.354Z,4.87
2022-09-24T04:06:04.049Z,4.64
2022-09-24T04:08:31.700Z,4.84
2022-09-24T04:10:58.815Z,4.81
2022-09-24T04:13:25.812Z,4.88
2022-09-24T04:15:53.753Z,4.68
2022-09-24T04:18:20.916Z,4.88
2022-09-24T04:20:47.536Z,4.74
2022-09-24T04:23:14.713Z,5.03
2022-09-24T04:25:41.492Z,4.83
2022-09-24T04:28:09.894Z,4.94
2022-09-24T04:30:38.032Z,4.75
2022-09-24T04:33:05.190Z,4.70
2022-09-24T04:35:33.215Z,4.64
2022-09-24T04:38:00.461Z,4.41
2022-09-24T04:40:27.485Z,4.73
2022-09-24T04:42:54.449Z,4.82
2022-09-24T04:45:21.649Z,4.67
2022-09-24T04:47:53.588Z,4.69
2022-09-24T04:50:20.995Z,4.62
2022-09-24T04:52:53.635Z,4.53
2022-09-24T04:55:20.787Z,4.44
2022-09-24T04:57:47.694Z,4.06
2022-09-24T05:00:17.625Z,4.37
2022-09-24T05:02:44.730Z,4.13
2022-09-24T05:05:12.631Z,4.30
2022-09-24T05:07:39.813Z,4.33
2022-09-24T05:10:06.906Z,4.38
2022-09-24T05:12:36.347Z,4.19
2022-09-24T05:15:04.349Z,4.14
2022-09-24T05:17:31.337Z,3.85
2022-09-24T05:19:59.502Z,4.45
2022-09-24T05:22:27.931Z,4.11
2022-09-24T05:24:54.640Z,4.30
2022-09-24T05:27:23.154Z,4.04
2022-09-24T05:29:50.410Z,4.51
2022-09-24T05:32:19.918Z,4.38
2022-09-24T05:34:47.267Z,4.57
2022-09-24T05:37:15.053Z,4.66
2022-09-24T05:39:41.853Z,4.52
2022-09-24T05:42:14.319Z,4.71
2022-09-24T05:44:41.283Z,4.59
2022-09-24T05:47:08.696Z,4.78
2022-09-24T05:49:35.590Z,4.50
2022-09-24T05:52:02.461Z,4.57
2022-09-24T05:54:29.063Z,4.36
2022-09-24T05:56:55.653Z,4.62
2022-09-24T05:59:22.267Z,4.66
2022-09-24T06:01:49.294Z,4.48
2022-09-24T06:04:16.352Z,4.38
2022-09-24T06:06:43.514Z,4.58
2022-09-24T06:09:10.351Z,4.52
2022-09-24T06:11:40.340Z,4.39
2022-09-24T06:14:08.513Z,4.63
2022-09-24T06:16:35.494Z,4.80
2022-09-24T06:19:02.290Z,5.06
2022-09-24T06:21:28.986Z,5.05
2022-09-24T06:23:55.661Z,5.23
2022-09-24T06:26:22.378Z,5.00
2022-09-24T06:28:49.063Z,5.27
2022-09-24T06:31:16.050Z,5.44
2022-09-24T06:33:43.083Z,5.89
2022-09-24T06:36:10.265Z,5.73
2022-09-24T06:38:36.928Z,5.82
2022-09-24T06:41:05.512Z,6.13
2022-09-24T06:43:33.427Z,6.10
2022-09-24T06:46:00.767Z,6.42
2022-09-24T06:48:28.816Z,6.38
2022-09-24T06:50:56.424Z,6.62
2022-09-24T06:53:23.254Z,6.58
2022-09-24T06:55:49.999Z,6.63
2022-09-24T06:58:22.100Z,6.92
2022-09-24T07:00:59.820Z,7.06
2022-09-24T07:03:28.217Z,7.01
2022-09-24T07:05:55.698Z,6.96
2022-09-24T07:08:22.680Z,7.02
2022-09-24T07:10:49.925Z,7.56
2022-09-24T07:13:17.144Z,7.80
2022-09-24T07:15:44.943Z,7.82
2022-09-24T07:18:12.252Z,7.89
2022-09-24T07:20:39.545Z,8.20
2022-09-24T07:23:08.380Z,8.60
2022-09-24T07:25:38.265Z,9.01
2022-09-24T07:28:10.636Z,9.25
2022-09-24T07:30:38.038Z,9.16
2022-09-24T07:33:05.204Z,9.32
2022-09-24T07:35:31.940Z,9.57
2022-09-24T07:38:16.804Z,9.44
2022-09-24T07:40:44.812Z,9.38
2022-09-24T07:43:13.946Z,9.52
2022-09-24T07:45:42.500Z,9.08
2022-09-24T07:48:10.020Z,9.54
2022-09-24T07:50:40.238Z,9.69
2022-09-24T07:53:06.928Z,9.78
2022-09-24T07:55:39.370Z,10.22
2022-09-24T07:58:08.291Z,10.49
2022-09-24T08:00:35.170Z,10.54
2022-09-24T08:03:03.350Z,10.43
2022-09-24T08:05:30.065Z,10.30
2022-09-24T08:07:57.795Z,10.56
2022-09-24T08:10:26.421Z,10.70
2022-09-24T08:12:53.734Z,10.83
2022-09-24T08:15:22.639Z,10.92
2022-09-24T08:17:49.608Z,10.95
2022-09-24T08:20:16.380Z,10.63
2022-09-24T08:22:43.057Z,10.73
2022-09-24T08:25:09.732Z,10.83
2022-09-24T08:27:37.585Z,11.11
2022-09-24T08:30:05.890Z,11.04
2022-09-24T08:32:32.812Z,11.23
2022-09-24T08:34:59.482Z,11.11
2022-09-24T08:37:28.126Z,11.30
2022-09-24T08:39:54.861Z,11.67
2022-09-24T08:42:55.463Z,12.05
2022-09-24T08:45:40.563Z,12.01
2022-09-24T08:48:15.682Z,11.90
2022-09-24T08:50:52.705Z,11.94
2022-09-24T08:53:26.342Z,11.93
2022-09-24T08:55:55.666Z,11.83
2022-09-24T08:58:53.048Z,12.03
2022-09-24T09:01:50.465Z,12.15
2022-09-24T09:04:32.531Z,12.53
2022-09-24T09:07:04.918Z,12.39
2022-09-24T09:09:43.691Z,12.56
2022-09-24T09:12:17.767Z,12.74
2022-09-24T09:14:59.530Z,12.70
2022-09-24T09:17:37.651Z,12.65
2022-09-24T09:20:10.832Z,12.96
2022-09-24T09:22:47.115Z,13.14
2022-09-24T09:25:25.926Z,12.87
2022-09-24T09:28:01.915Z,12.86
2022-09-24T09:30:53.741Z,12.67
2022-09-24T09:33:54.831Z,13.08
2022-09-24T09:36:40.096Z,13.34
2022-09-24T09:39:41.600Z,13.54
2022-09-24T09:42:17.575Z,13.82
2022-09-24T09:44:46.070Z,13.75
2022-09-24T09:47:25.001Z,13.89
2022-09-24T09:49:57.640Z,14.01
2022-09-24T09:52:28.634Z,13.95
2022-09-24T09:54:56.004Z,14.38
2022-09-24T09:57:25.332Z,13.93
2022-09-24T09:59:54.383Z,13.79
2022-09-24T10:02:31.508Z,13.99
2022-09-24T10:05:00.928Z,14.12
2022-09-24T10:07:28.210Z,14.08
2022-09-24T10:10:18.557Z,14.37
2022-09-24T10:12:45.371Z,14.37
2022-09-24T10:15:15.289Z,14.40
2022-09-24T10:17:43.989Z,14.25
2022-09-24T10:20:16.662Z,14.51
2022-09-24T10:22:51.897Z,14.47
2022-09-24T10:25:28.318Z,14.43
2022-09-24T10:28:18.600Z,14.44
2022-09-24T10:30:53.030Z,14.60
2022-09-24T10:33:20.350Z,14.60
2022-09-24T10:35:47.175Z,14.43
2022-09-24T10:38:19.082Z,14.52
2022-09-24T10:40:47.137Z,14.65
2022-09-24T10:43:21.888Z,14.69
2022-09-24T10:46:07.524Z,14.53
2022-09-24T10:48:44.630Z,14.85
2022-09-24T10:51:42.198Z,14.85
2022-09-24T10:54:27.725Z,14.79
2022-09-24T10:56:57.299Z,14.94
2022-09-24T10:59:36.079Z,15.10
2022-09-24T11:02:02.697Z,15.14
2022-09-24T11:04:41.478Z,15.29
2022-09-24T11:07:39.318Z,15.28
2022-09-24T11:10:20.960Z,15.26
2022-09-24T11:12:53.841Z,14.98
2022-09-24T11:15:41.982Z,15.00
2022-09-24T11:18:19.394Z,14.93
2022-09-24T11:21:04.531Z,14.83
2022-09-24T11:23:49.586Z,15.00
2022-09-24T11:26:29.626Z,14.99
2022-09-24T11:29:44.476Z,14.73
2022-09-24T11:32:29.700Z,15.12
2022-09-24T11:35:21.364Z,15.25
2022-09-24T11:38:00.489Z,15.25
2022-09-24T11:41:15.431Z,14.98
2022-09-24T11:44:03.739Z,14.92
2022-09-24T11:47:08.081Z,15.09
2022-09-24T11:50:04.562Z,15.00
2022-09-24T11:52:40.885Z,15.07
2022-09-24T11:55:13.521Z,15.09
2022-09-24T11:57:45.025Z,15.18
2022-09-24T12:00:22.193Z,14.98
2022-09-24T12:03:25.875Z,15.25
2022-09-24T12:06:02.863Z,15.28
2022-09-24T12:08:39.849Z,14.98
2022-09-24T12:11:06.409Z,15.33
2022-09-24T12:13:47.798Z,15.09
2022-09-24T12:16:26.114Z,15.27
2022-09-24T12:18:59.850Z,15.40
2022-09-24T12:21:43.257Z,15.59
2022-09-24T12:24:34.803Z,15.23
2022-09-24T12:27:07.269Z,15.40
2022-09-24T12:30:16.858Z,15.37
2022-09-24T12:32:54.399Z,15.35
2022-09-24T12:35:42.950Z,15.54
2022-09-24T12:38:16.464Z,15.85
2022-09-24T12:40:45.962Z,16.03
2022-09-24T12:43:35.103Z,15.84
2022-09-24T12:46:04.738Z,16.08
2022-09-24T12:48:36.299Z,16.36
2022-09-24T12:51:06.679Z,16.26
2022-09-24T12:53:35.895Z,16.20
2022-09-24T12:56:04.477Z,16.17
2022-09-24T12:58:30.985Z,16.08
2022-09-24T13:01:13.378Z,16.07
2022-09-24T13:03:46.682Z,15.81
2022-09-24T13:06:31.408Z,16.08
2022-09-24T13:08:59.367Z,16.11
2022-09-24T13:11:37.509Z,16.12
2022-09-24T13:14:13.137Z,16.55
2022-09-24T13:16:42.312Z,16.51
2022-09-24T13:19:27.848Z,16.94
2022-09-24T13:22:00.189Z,16.48
2022-09-24T13:24:36.172Z,16.22
2022-09-24T13:27:31.943Z,16.10
2022-09-24T13:30:09.618Z,16.26
2022-09-24T13:32:46.662Z,15.96
2022-09-24T13:35:22.334Z,15.78
2022-09-24T13:38:25.964Z,16.07
2022-09-24T13:40:59.164Z,16.96
2022-09-24T13:43:51.116Z,16.57
2022-09-24T13:46:20.286Z,16.26
2022-09-24T13:48:57.168Z,16.17
2022-09-24T13:51:28.950Z,16.34
2022-09-24T13:54:10.750Z,16.48
2022-09-24T13:56:37.508Z,16.47
2022-09-24T13:59:07.040Z,16.46
2022-09-24T14:01:41.193Z,17.47
2022-09-24T14:04:20.719Z,17.49
2022-09-24T14:06:53.523Z,17.57
2022-09-24T14:09:23.154Z,17.20
2022-09-24T14:11:51.990Z,16.51
2022-09-24T14:14:21.227Z,16.13
2022-09-24T14:16:47.888Z,15.99
2022-09-24T14:19:16.051Z,15.98
2022-09-24T14:22:10.657Z,15.92
2022-09-24T14:24:45.449Z,15.83
2022-09-24T14:27:17.566Z,15.64
2022-09-24T14:29:49.370Z,15.92
2022-09-24T14:32:36.980Z,15.96
2022-09-24T14:35:40.487Z,16.17
2022-09-24T14:38:20.478Z,16.96
2022-09-24T14:40:57.836Z,16.92
2022-09-24T14:43:46.202Z,16.93
2022-09-24T14:46:22.232Z,16.95
2022-09-24T14:48:49.360Z,17.32
2022-09-24T14:51:28.250Z,16.64
2022-09-24T14:54:19.200Z,16.47
2022-09-24T14:56:45.907Z,16.33
2022-09-24T14:59:26.451Z,16.72
2022-09-24T15:02:12.313Z,16.39
2022-09-24T15:04:39.169Z,16.55
2022-09-24T15:07:05.939Z,16.04
2022-09-24T15:09:32.669Z,16.42
2022-09-24T15:12:10.026Z,17.13
2022-09-24T15:14:36.707Z,17.67
2022-09-24T15:17:21.570Z,17.95
2022-09-24T15:19:48.309Z,17.33
2022-09-24T15:22:15.239Z,17.01
2022-09-24T15:24:41.826Z,16.55
2022-09-24T15:27:23.694Z,16.20
2022-09-24T15:29:50.685Z,15.61
2022-09-24T15:32:19.505Z,15.40
2022-09-24T15:34:47.020Z,15.44
2022-09-24T15:37:18.178Z,15.27
2022-09-24T15:39:49.143Z,14.74
2022-09-24T15:42:21.151Z,14.85
2022-09-24T15:44:48.854Z,14.93
2022-09-24T15:47:15.489Z,14.95
2022-09-24T15:49:42.420Z,14.85
2022-09-24T15:52:26.437Z,14.78
2022-09-24T15:54:54.861Z,14.85
2022-09-24T15:57:22.691Z,14.92
2022-09-24T15:59:50.146Z,14.70
2022-09-24T16:02:21.192Z,14.87
2022-09-24T16:04:47.871Z,14.57
2022-09-24T16:07:14.500Z,14.78
2022-09-24T16:09:41.220Z,14.34
2022-09-24T16:12:07.949Z,14.31
2022-09-24T16:14:34.723Z,14.37
2022-09-24T16:17:01.316Z,14.17
2022-09-24T16:19:29.478Z,14.18
2022-09-24T16:21:56.603Z,14.22
2022-09-24T16:24:23.339Z,14.30
2022-09-24T16:26:49.985Z,13.95
2022-09-24T16:29:18.042Z,13.75
2022-09-24T16:31:45.356Z,13.98
2022-09-24T16:34:12.316Z,13.73
2022-09-24T16:36:38.947Z,13.83
2022-09-24T16:39:05.720Z,13.97
2022-09-24T16:41:34.477Z,13.66
2022-09-24T16:44:01.723Z,13.50
2022-09-24T16:46:28.574Z,13.63
2022-09-24T16:48:55.380Z,13.38
2022-09-24T16:51:22.148Z,13.26
2022-09-24T16:53:49.444Z,13.42
2022-09-24T16:56:19.604Z,13.21
2022-09-24T16:58:47.257Z,13.37
2022-09-24T17:01:16.531Z,13.29
2022-09-24T17:03:43.615Z,12.90
2022-09-24T17:06:19.489Z,13.20
2022-09-24T17:09:04.707Z,12.78
2022-09-24T17:11:31.366Z,12.65
2022-09-24T17:13:57.928Z,12.63
2022-09-24T17:16:27.450Z,12.56
2022-09-24T17:18:54.585Z,12.54
2022-09-24T17:21:22.017Z,12.64
2022-09-24T17:23:49.329Z,12.80
2022-09-24T17:26:18.589Z,12.79
2022-09-24T17:28:47.028Z,12.40
2022-09-24T17:31:16.941Z,12.56
2022-09-24T17:33:44.503Z,12.03
2022-09-24T17:36:14.064Z,12.37
2022-09-24T17:38:40.855Z,11.97
2022-09-24T17:41:11.359Z,12.26
2022-09-24T17:43:40.702Z,12.17
2022-09-24T17:46:14.576Z,12.14
2022-09-24T17:48:44.849Z,12.21
2022-09-24T17:51:15.881Z,12.34
2022-09-24T17:53:43.031Z,12.14
2022-09-24T17:56:11.830Z,12.15
2022-09-24T17:58:41.332Z,12.09
2022-09-24T18:01:13.669Z,11.77
2022-09-24T18:03:40.990Z,11.91
2022-09-24T18:06:09.989Z,11.91
2022-09-24T18:08:41.693Z,11.67
2022-09-24T18:11:17.561Z,11.36
2022-09-24T18:13:45.100Z,11.78
2022-09-24T18:16:16.368Z,11.87
2022-09-24T18:18:44.065Z,11.83
2022-09-24T18:21:13.161Z,11.69
2022-09-24T18:23:40.346Z,11.48
2022-09-24T18:26:18.629Z,11.81
2022-09-24T18:28:57.891Z,12.01
2022-09-24T18:31:28.188Z,11.96
2022-09-24T18:33:58.071Z,11.85
2022-09-24T18:36:28.220Z,11.81
2022-09-24T18:38:56.002Z,11.74
2022-09-24T18:41:26.533Z,11.31
2022-09-24T18:43:54.338Z,11.35
2022-09-24T18:46:22.633Z,11.47
2022-09-24T18:48:51.906Z,11.05
2022-09-24T18:51:30.747Z,11.41
2022-09-24T18:54:10.627Z,11.36
2022-09-24T18:56:37.351Z,11.21
2022-09-24T18:59:11.320Z,11.45
2022-09-24T19:01:39.524Z,11.40
2022-09-24T19:04:09.341Z,11.38
2022-09-24T19:06:41.687Z,11.29
2022-09-24T19:09:10.445Z,11.36
2022-09-24T19:11:37.614Z,11.33
2022-09-24T19:14:04.231Z,11.18
2022-09-24T19:16:31.255Z,10.94
2022-09-24T19:18:59.765Z,11.06
2022-09-24T19:21:27.178Z,11.25
2022-09-24T19:23:56.474Z,11.25
2022-09-24T19:26:25.982Z,11.31
2022-09-24T19:28:53.555Z,11.20
2022-09-24T19:31:31.886Z,11.12
2022-09-24T19:34:02.959Z,10.92
2022-09-24T19:36:30.033Z,10.98
2022-09-24T19:38:57.851Z,10.86
2022-09-24T19:41:26.634Z,11.04
2022-09-24T19:43:58.503Z,11.16
2022-09-24T19:46:27.165Z,11.17
2022-09-24T19:48:55.733Z,11.24
2022-09-24T19:51:31.260Z,11.29
2022-09-24T19:54:04.116Z,11.18
2022-09-24T19:56:31.864Z,11.33
2022-09-24T19:59:00.620Z,11.29
2022-09-24T20:01:32.199Z,11.28
2022-09-24T20:04:01.942Z,11.25
2022-09-24T20:06:31.199Z,10.95
2022-09-24T20:08:59.346Z,11.18
2022-09-24T20:11:26.510Z,11.21
2022-09-24T20:13:55.435Z,11.20
2022-09-24T20:16:27.456Z,11.06
2022-09-24T20:18:57.522Z,11.16
2022-09-24T20:21:29.285Z,11.05
2022-09-24T20:23:58.036Z,10.96
2022-09-24T20:26:44.361Z,10.85
2022-09-24T20:29:13.866Z,10.98
2022-09-24T20:31:51.156Z,11.01
2022-09-24T20:34:19.317Z,10.48
2022-09-24T20:36:45.952Z,10.55
2022-09-24T20:39:12.818Z,10.38
2022-09-24T20:41:39.526Z,10.79
2022-09-24T20:44:06.223Z,10.61
2022-09-24T20:46:32.997Z,10.38
2022-09-24T20:49:00.149Z,10.63
2022-09-24T20:51:29.557Z,10.53
2022-09-24T20:53:58.238Z,10.51
2022-09-24T20:56:25.028Z,10.53
2022-09-24T20:58:53.039Z,10.76
2022-09-24T21:01:21.336Z,10.72
2022-09-24T21:03:50.116Z,10.61
2022-09-24T21:06:17.994Z,10.76
2022-09-24T21:08:46.167Z,10.68
2022-09-24T21:11:16.217Z,10.67
2022-09-24T21:13:45.337Z,10.69
2022-09-24T21:16:12.333Z,10.55
2022-09-24T21:18:40.964Z,10.65
2022-09-24T21:21:15.452Z,10.30
2022-09-24T21:23:43.802Z,10.58
2022-09-24T21:26:18.419Z,10.53
2022-09-24T21:28:46.792Z,10.50
2022-09-24T21:31:14.901Z,9.91
2022-09-24T21:33:46.453Z,10.49
2022-09-24T21:36:18.578Z,10.20
2022-09-24T21:39:07.139Z,10.52
2022-09-24T21:41:40.075Z,10.20
2022-09-24T21:44:09.133Z,10.59
2022-09-24T21:46:35.894Z,10.49
2022-09-24T21:49:03.049Z,10.40
2022-09-24T21:51:30.504Z,10.75
2022-09-24T21:54:02.881Z,10.93
2022-09-24T21:56:31.327Z,10.70
2022-09-24T21:58:59.017Z,10.74
2022-09-24T22:01:28.879Z,10.43
2022-09-24T22:03:58.260Z,10.78
2022-09-24T22:06:29.106Z,10.41
2022-09-24T22:08:58.004Z,10.72
2022-09-24T22:11:26.396Z,10.63
2022-09-24T22:13:54.365Z,10.33
2022-09-24T22:16:21.731Z,10.33
2022-09-24T22:18:48.469Z,10.29
2022-09-24T22:21:15.770Z,10.48
2022-09-24T22:23:42.463Z,10.53
2022-09-24T22:26:10.213Z,10.53
2022-09-24T22:28:37.871Z,10.06
2022-09-24T22:31:10.529Z,10.25
2022-09-24T22:33:55.994Z,10.12
2022-09-24T22:36:23.630Z,10.14
2022-09-24T22:38:54.807Z,9.87
2022-09-24T22:41:21.555Z,10.19
2022-09-24T22:43:48.308Z,10.19
2022-09-24T22:46:16.130Z,9.94
2022-09-24T22:48:47.554Z,9.97
2022-09-24T22:51:16.567Z,9.68
2022-09-24T22:53:43.556Z,10.02
2022-09-24T22:56:13.252Z,9.69
2022-09-24T22:59:06.860Z,9.87
2022-09-24T23:01:39.243Z,9.22
2022-09-24T23:04:08.822Z,10.04
2022-09-24T23:06:49.055Z,9.59
2022-09-24T23:13:10.981Z,9.30
2022-09-24T23:15:37.609Z,9.87
2022-09-24T23:18:04.220Z,10.05
2022-09-24T23:20:30.848Z,9.81
2022-09-24T23:22:58.368Z,9.85
2022-09-24T23:25:25.007Z,9.83
2022-09-24T23:27:51.690Z,9.98
2022-09-24T23:30:18.317Z,9.85
2022-09-24T23:32:44.980Z,9.96
2022-09-24T23:35:11.574Z,9.85
2022-09-24T23:37:38.153Z,9.57
2022-09-24T23:40:05.229Z,10.01
2022-09-24T23:42:31.972Z,9.98
2022-09-24T23:44:58.641Z,9.88
2022-09-24T23:47:25.241Z,9.87
2022-09-24T23:49:51.901Z,9.59
2022-09-24T23:52:18.544Z,10.13
2022-09-24T23:54:48.174Z,10.11
2022-09-24T23:57:17.872Z,9.88
2022-09-24T23:59:49.130Z,9.90
